createdAt,value
2018-04-24T00:02:09.978Z,14.03
2018-04-24T00:04:37.573Z,12.47
2018-04-24T00:07:05.174Z,12.37
2018-04-24T00:09:32.771Z,15.07
2018-04-24T00:12:00.382Z,13.83
2018-04-24T00:14:28.790Z,13.43
2018-04-24T00:16:56.386Z,17.33
2018-04-24T00:19:23.978Z,11.10
2018-04-24T00:21:51.582Z,12.53
2018-04-24T00:24:19.178Z,11.70
2018-04-24T00:26:46.775Z,13.43
2018-04-24T00:29:14.386Z,12.77
2018-04-24T00:31:41.986Z,15.53
2018-04-24T00:34:09.576Z,13.87
2018-04-24T00:36:37.248Z,15.97
2018-04-24T00:39:05.626Z,13.07
2018-04-24T00:41:33.223Z,13.20
2018-04-24T00:44:00.826Z,13.60
2018-04-24T00:46:28.430Z,16.83
2018-04-24T00:48:56.030Z,14.27
2018-04-24T00:51:23.654Z,18.20
2018-04-24T00:53:51.241Z,15.93
2018-04-24T00:56:18.869Z,17.13
2018-04-24T00:58:46.494Z,11.97
2018-04-24T01:01:14.887Z,13.47
2018-04-24T01:03:43.278Z,15.50
2018-04-24T01:06:11.647Z,11.13
2018-04-24T01:08:39.249Z,13.67
2018-04-24T01:11:06.853Z,16.40
2018-04-24T01:13:34.462Z,13.17
2018-04-24T01:16:02.073Z,16.00
2018-04-24T01:18:29.666Z,16.90
2018-04-24T01:20:57.270Z,12.93
2018-04-24T01:23:24.882Z,17.20
2018-04-24T01:25:52.485Z,12.97
2018-04-24T01:28:20.206Z,18.10
2018-04-24T01:30:47.807Z,15.53
2018-04-24T01:33:15.398Z,13.33
2018-04-24T01:35:43.015Z,19.37
2018-04-24T01:38:10.611Z,15.80
2018-04-24T01:40:38.206Z,14.77
2018-04-24T01:43:06.595Z,13.60
2018-04-24T01:45:34.194Z,12.87
2018-04-24T01:48:01.814Z,20.00
2018-04-24T01:50:29.434Z,12.57
2018-04-24T01:52:57.026Z,18.00
2018-04-24T01:55:24.621Z,18.93
2018-04-24T01:57:52.240Z,18.90
2018-04-24T02:00:20.666Z,17.30
2018-04-24T02:05:51.198Z,15.73
2018-04-24T02:08:18.800Z,15.13
2018-04-24T02:10:46.398Z,16.43
2018-04-24T02:13:14.770Z,17.23
2018-04-24T02:15:43.190Z,15.27
2018-04-24T02:18:10.798Z,15.17
2018-04-24T02:20:38.433Z,17.40
2018-04-24T02:23:06.057Z,16.77
2018-04-24T02:25:33.674Z,15.73
2018-04-24T02:28:01.330Z,19.40
2018-04-24T02:30:28.947Z,17.63
2018-04-24T02:32:56.546Z,17.20
2018-04-24T02:35:24.248Z,16.97
2018-04-24T02:37:52.630Z,15.53
2018-04-24T02:40:21.005Z,15.97
2018-04-24T02:42:48.654Z,20.00
2018-04-24T02:45:17.014Z,20.93
2018-04-24T02:47:44.606Z,19.20
2018-04-24T02:50:13.026Z,17.80
2018-04-24T02:52:40.617Z,17.73
2018-04-24T02:55:08.395Z,16.37
2018-04-24T02:57:36.006Z,19.87
2018-04-24T03:00:03.731Z,21.40
2018-04-24T03:02:31.342Z,19.00
2018-04-24T03:04:58.946Z,16.37
2018-04-24T03:07:26.558Z,23.00
2018-04-24T03:09:54.150Z,17.43
2018-04-24T03:12:21.775Z,21.30
2018-04-24T03:14:49.379Z,19.47
2018-04-24T03:17:17.800Z,26.43
2018-04-24T03:19:45.402Z,20.73
2018-04-24T03:22:12.997Z,14.50
2018-04-24T03:24:40.596Z,25.53
2018-04-24T03:27:08.198Z,20.97
2018-04-24T03:29:36.558Z,17.33
2018-04-24T03:32:04.180Z,16.83
2018-04-24T03:34:31.879Z,21.27
2018-04-24T03:36:59.483Z,27.13
2018-04-24T03:39:27.133Z,27.60
2018-04-24T03:41:55.549Z,21.13
2018-04-24T03:44:23.148Z,22.20
2018-04-24T03:46:50.750Z,24.33
2018-04-24T03:49:18.379Z,25.90
2018-04-24T03:51:45.987Z,23.87
2018-04-24T03:54:13.606Z,23.23
2018-04-24T03:56:42.018Z,25.17
2018-04-24T03:59:09.609Z,26.97
2018-04-24T04:01:37.221Z,26.83
2018-04-24T04:04:04.826Z,30.50
2018-04-24T04:06:32.575Z,35.27
2018-04-24T04:09:00.177Z,25.90
2018-04-24T04:11:27.786Z,26.57
2018-04-24T04:13:55.381Z,28.10
2018-04-24T04:16:22.988Z,27.60
2018-04-24T04:19:02.346Z,32.50
2018-04-24T04:21:44.412Z,27.53
2018-04-24T04:24:33.790Z,29.73
2018-04-24T04:27:01.387Z,29.67
2018-04-24T04:29:28.976Z,24.97
2018-04-24T04:31:56.586Z,29.97
2018-04-24T04:34:24.194Z,29.33
2018-04-24T04:36:53.402Z,27.83
2018-04-24T04:39:21.090Z,15.77
2018-04-24T04:41:48.686Z,26.00
2018-04-24T04:44:17.067Z,28.80
2018-04-24T04:46:44.675Z,23.30
2018-04-24T04:49:13.031Z,19.67
2018-04-24T04:51:40.686Z,26.30
2018-04-24T04:54:08.311Z,24.13
2018-04-24T04:56:35.906Z,20.23
2018-04-24T04:59:03.502Z,23.70
2018-04-24T05:01:31.875Z,22.20
2018-04-24T05:04:00.283Z,25.20
2018-04-24T05:06:27.941Z,21.00
2018-04-24T05:08:55.563Z,18.50
2018-04-24T05:11:23.165Z,29.37
2018-04-24T05:13:50.794Z,20.37
2018-04-24T05:16:19.170Z,24.13
2018-04-24T05:18:47.550Z,19.30
2018-04-24T05:21:16.036Z,21.73
2018-04-24T05:23:43.658Z,21.27
2018-04-24T05:26:11.255Z,18.43
2018-04-24T05:28:38.854Z,24.00
2018-04-24T05:31:06.454Z,26.40
2018-04-24T05:33:34.047Z,23.47
2018-04-24T05:36:01.661Z,24.53
2018-04-24T05:38:29.292Z,20.43
2018-04-24T05:40:56.899Z,17.63
2018-04-24T05:43:24.523Z,21.97
2018-04-24T05:45:52.158Z,19.85
2018-04-24T05:48:19.761Z,22.73
2018-04-24T05:50:47.393Z,16.30
2018-04-24T05:53:15.053Z,21.50
2018-04-24T05:55:42.694Z,20.33
2018-04-24T05:58:10.338Z,18.43
2018-04-24T06:00:38.708Z,17.50
2018-04-24T06:03:06.348Z,19.07
2018-04-24T06:05:34.006Z,16.20
2018-04-24T06:08:01.638Z,20.73
2018-04-24T06:10:29.260Z,16.10
2018-04-24T06:12:57.651Z,19.10
2018-04-24T06:15:25.278Z,16.37
2018-04-24T06:17:52.874Z,16.60
2018-04-24T06:20:20.466Z,20.90
2018-04-24T06:22:48.090Z,18.67
2018-04-24T06:25:15.721Z,14.30
2018-04-24T06:27:43.350Z,16.27
2018-04-24T06:30:10.973Z,16.60
2018-04-24T06:32:38.575Z,12.23
2018-04-24T06:35:06.171Z,17.03
2018-04-24T06:37:33.782Z,19.30
2018-04-24T06:40:01.387Z,16.20
2018-04-24T06:42:28.986Z,11.77
2018-04-24T06:44:56.611Z,14.03
2018-04-24T06:47:24.212Z,8.07
2018-04-24T06:49:51.870Z,13.27
2018-04-24T06:52:19.554Z,10.60
2018-04-24T06:54:47.165Z,14.93
2018-04-24T06:57:15.523Z,9.23
2018-04-24T06:59:43.138Z,10.83
2018-04-24T07:02:10.730Z,13.63
2018-04-24T07:04:38.321Z,14.07
2018-04-24T07:07:06.693Z,13.90
2018-04-24T07:09:35.060Z,16.43
2018-04-24T07:12:02.658Z,14.10
2018-04-24T07:14:30.322Z,18.23
2018-04-24T07:16:57.950Z,15.10
2018-04-24T07:19:26.370Z,12.73
2018-04-24T07:21:53.988Z,13.83
2018-04-24T07:24:22.357Z,14.13
2018-04-24T07:26:49.950Z,17.53
2018-04-24T07:29:17.582Z,15.50
2018-04-24T07:31:45.179Z,16.20
2018-04-24T07:34:13.546Z,14.57
2018-04-24T07:36:41.178Z,14.10
2018-04-24T07:39:08.773Z,16.63
2018-04-24T07:41:36.404Z,11.23
2018-04-24T07:44:04.032Z,15.37
2018-04-24T07:46:31.660Z,10.90
2018-04-24T07:48:59.255Z,11.80
2018-04-24T07:51:26.861Z,10.80
2018-04-24T07:53:54.496Z,12.23
2018-04-24T07:56:22.094Z,15.47
2018-04-24T07:58:49.702Z,19.05
2018-04-24T08:01:17.298Z,16.63
2018-04-24T08:03:44.922Z,15.83
2018-04-24T08:06:12.546Z,13.23
2018-04-24T08:08:40.150Z,17.70
2018-04-24T08:11:07.762Z,18.50
2018-04-24T08:13:35.371Z,17.93
2018-04-24T08:16:03.031Z,18.03
2018-04-24T08:18:30.635Z,19.60
2018-04-24T08:20:58.326Z,20.10
2018-04-24T08:23:25.922Z,26.97
2018-04-24T08:25:53.630Z,18.47
2018-04-24T08:28:21.283Z,22.60
2018-04-24T08:30:48.968Z,27.43
2018-04-24T08:33:16.573Z,22.57
2018-04-24T08:35:44.284Z,23.07
2018-04-24T08:38:12.085Z,23.97
2018-04-24T08:40:39.791Z,22.60
2018-04-24T08:43:08.154Z,22.80
2018-04-24T08:45:36.569Z,24.20
2018-04-24T08:48:04.178Z,25.30
2018-04-24T08:50:31.790Z,20.03
2018-04-24T08:52:59.402Z,26.30
2018-04-24T08:55:27.007Z,24.23
2018-04-24T08:57:54.612Z,20.33
2018-04-24T09:00:22.215Z,17.87
2018-04-24T09:02:49.826Z,20.20
2018-04-24T09:05:17.434Z,18.77
2018-04-24T09:07:45.810Z,21.07
2018-04-24T09:10:13.511Z,19.37
2018-04-24T09:12:41.171Z,23.87
2018-04-24T09:15:08.797Z,26.10
2018-04-24T09:17:36.392Z,26.20
2018-04-24T09:20:04.014Z,26.33
2018-04-24T09:22:31.630Z,28.80
2018-04-24T09:24:59.236Z,27.50
2018-04-24T09:27:27.623Z,34.83
2018-04-24T09:30:00.804Z,23.07
2018-04-24T09:32:28.460Z,22.53
2018-04-24T09:34:56.067Z,21.10
2018-04-24T09:37:23.697Z,20.20
2018-04-24T09:39:51.310Z,18.33
2018-04-24T09:42:18.986Z,15.83
2018-04-24T09:44:46.594Z,19.30
2018-04-24T09:47:14.198Z,20.23
2018-04-24T09:49:41.798Z,25.90
2018-04-24T09:52:11.928Z,25.63
2018-04-24T09:54:39.561Z,30.93
2018-04-24T09:57:07.155Z,31.10
2018-04-24T09:59:34.755Z,36.47
2018-04-24T10:02:02.380Z,29.57
2018-04-24T10:04:30.042Z,32.83
2018-04-24T10:06:57.638Z,41.73
2018-04-24T10:09:25.247Z,39.47
2018-04-24T10:11:52.847Z,37.57
2018-04-24T10:14:21.250Z,38.63
2018-04-24T10:16:49.673Z,35.77
2018-04-24T10:19:17.286Z,31.53
2018-04-24T10:21:46.030Z,28.83
2018-04-24T10:24:15.766Z,28.07
2018-04-24T10:26:44.723Z,25.67
2018-04-24T10:29:12.365Z,25.03
2018-04-24T10:31:40.008Z,19.97
2018-04-24T10:34:08.382Z,26.63
2018-04-24T10:36:36.776Z,22.63
2018-04-24T10:39:04.412Z,23.53
2018-04-24T10:41:32.049Z,25.73
2018-04-24T10:44:01.169Z,20.77
2018-04-24T10:46:28.857Z,25.57
2018-04-24T10:48:56.498Z,18.90
2018-04-24T10:51:24.291Z,18.40
2018-04-24T10:53:51.918Z,17.77
2018-04-24T10:56:20.303Z,19.17
2018-04-24T10:58:48.707Z,17.07
2018-04-24T11:01:16.351Z,18.43
2018-04-24T11:03:44.731Z,16.80
2018-04-24T11:06:12.362Z,15.17
2018-04-24T11:08:40.002Z,14.60
2018-04-24T11:11:07.630Z,14.13
2018-04-24T11:13:35.234Z,16.17
2018-04-24T11:16:02.906Z,15.43
2018-04-24T11:18:30.520Z,15.00
2018-04-24T11:20:58.922Z,15.17
2018-04-24T11:23:26.538Z,17.50
2018-04-24T11:25:54.146Z,12.03
2018-04-24T11:28:21.754Z,15.30
2018-04-24T11:30:49.386Z,16.67
2018-04-24T11:33:16.991Z,14.83
2018-04-24T11:35:44.595Z,17.27
2018-04-24T11:38:12.229Z,16.80
2018-04-24T11:40:39.834Z,13.97
2018-04-24T11:43:07.462Z,15.00
2018-04-24T11:45:35.141Z,16.73
2018-04-24T11:48:02.751Z,18.50
2018-04-24T11:50:30.378Z,22.17
2018-04-24T11:52:57.994Z,21.67
2018-04-24T11:55:25.659Z,19.80
2018-04-24T11:57:53.341Z,23.33
2018-04-24T12:00:20.960Z,16.97
2018-04-24T12:02:48.709Z,20.43
2018-04-24T12:05:16.343Z,19.37
2018-04-24T12:07:44.029Z,25.80
2018-04-24T12:10:12.438Z,25.67
2018-04-24T12:12:40.093Z,22.87
2018-04-24T12:15:07.746Z,20.87
2018-04-24T12:17:35.458Z,19.70
2018-04-24T12:20:03.095Z,28.80
2018-04-24T12:22:30.741Z,20.77
2018-04-24T12:24:58.381Z,22.90
2018-04-24T12:27:26.021Z,19.23
2018-04-24T12:29:54.537Z,24.10
2018-04-24T12:32:22.121Z,21.37
2018-04-24T12:34:49.817Z,17.70
2018-04-24T12:37:18.210Z,21.17
2018-04-24T12:39:45.840Z,22.30
2018-04-24T12:42:13.491Z,19.27
2018-04-24T12:44:41.119Z,17.17
2018-04-24T12:47:08.769Z,21.23
2018-04-24T12:49:36.386Z,17.87
2018-04-24T12:52:04.003Z,17.73
2018-04-24T12:54:31.725Z,21.40
2018-04-24T12:56:59.341Z,20.87
2018-04-24T12:59:26.982Z,20.17
2018-04-24T13:01:54.626Z,24.23
2018-04-24T13:04:22.242Z,16.27
2018-04-24T13:06:49.858Z,21.80
2018-04-24T13:09:17.502Z,17.20
2018-04-24T13:11:45.142Z,15.53
2018-04-24T13:14:12.764Z,19.47
2018-04-24T13:16:41.298Z,21.93
2018-04-24T13:19:09.675Z,21.87
2018-04-24T13:21:38.750Z,18.97
2018-04-24T13:24:06.423Z,15.70
2018-04-24T13:26:34.063Z,13.80
2018-04-24T13:29:01.695Z,17.80
2018-04-24T13:31:29.847Z,16.93
2018-04-24T13:33:58.223Z,18.57
2018-04-24T13:36:25.846Z,22.05
2018-04-24T13:38:53.502Z,16.20
2018-04-24T13:41:21.114Z,16.00
2018-04-24T13:43:48.826Z,22.30
2018-04-24T13:46:16.444Z,15.17
2018-04-24T13:48:44.101Z,17.30
2018-04-24T13:51:11.722Z,23.00
2018-04-24T13:53:39.446Z,19.27
2018-04-24T13:56:07.039Z,22.07
2018-04-24T13:58:34.650Z,16.97
2018-04-24T14:01:02.242Z,16.40
2018-04-24T14:03:31.202Z,23.27
2018-04-24T14:05:58.823Z,19.03
2018-04-24T14:08:27.193Z,18.87
2018-04-24T14:10:54.826Z,19.53
2018-04-24T14:13:22.451Z,16.53
2018-04-24T14:15:50.046Z,19.97
2018-04-24T14:18:17.664Z,20.10
2018-04-24T14:20:46.059Z,19.47
2018-04-24T14:23:13.666Z,18.37
2018-04-24T14:25:41.366Z,15.97
2018-04-24T14:28:08.989Z,23.48
2018-04-24T14:30:36.596Z,16.60
2018-04-24T14:33:04.968Z,13.63
2018-04-24T14:35:32.604Z,16.97
2018-04-24T14:38:00.249Z,12.43
2018-04-24T14:40:27.854Z,16.60
2018-04-24T14:42:55.470Z,16.13
2018-04-24T14:45:23.092Z,14.57
2018-04-24T14:47:50.694Z,9.40
2018-04-24T14:50:18.386Z,15.73
2018-04-24T14:52:46.009Z,18.80
2018-04-24T14:55:13.614Z,17.40
2018-04-24T14:57:41.615Z,15.60
2018-04-24T15:00:09.234Z,11.17
2018-04-24T15:02:37.598Z,15.30
2018-04-24T15:05:05.973Z,13.57
2018-04-24T15:07:33.569Z,14.90
2018-04-24T15:10:01.168Z,15.63
2018-04-24T15:12:28.818Z,13.77
2018-04-24T15:14:56.481Z,19.43
2018-04-24T15:17:24.085Z,20.50
2018-04-24T15:19:52.460Z,22.60
2018-04-24T15:22:20.827Z,19.27
2018-04-24T15:24:48.419Z,17.63
2018-04-24T15:27:16.037Z,15.73
2018-04-24T15:29:43.625Z,17.10
2018-04-24T15:32:11.990Z,19.87
2018-04-24T15:34:39.619Z,17.30
2018-04-24T15:37:07.305Z,15.83
2018-04-24T15:39:34.962Z,21.23
2018-04-24T15:42:02.572Z,19.00
2018-04-24T15:44:30.166Z,17.27
2018-04-24T15:46:57.791Z,17.53
2018-04-24T15:49:25.458Z,18.53
2018-04-24T15:51:53.817Z,18.37
2018-04-24T15:54:21.449Z,10.50
2018-04-24T15:56:49.059Z,20.73
2018-04-24T15:59:16.674Z,11.30
2018-04-24T16:01:44.302Z,15.57
2018-04-24T16:04:11.914Z,15.07
2018-04-24T16:06:39.529Z,11.67
2018-04-24T16:09:07.133Z,17.53
2018-04-24T16:11:35.502Z,15.03
2018-04-24T16:14:03.094Z,13.43
2018-04-24T16:16:30.748Z,14.93
2018-04-24T16:18:59.125Z,17.30
2018-04-24T16:21:26.718Z,10.00
2018-04-24T16:23:54.319Z,13.47
2018-04-24T16:26:21.942Z,14.43
2018-04-24T16:28:50.303Z,10.67
2018-04-24T16:31:17.907Z,15.57
2018-04-24T16:33:45.634Z,13.17
2018-04-24T16:36:13.950Z,10.57
2018-04-24T16:38:42.326Z,15.70
2018-04-24T16:41:09.941Z,13.87
2018-04-24T16:43:37.538Z,10.47
2018-04-24T16:46:05.169Z,15.77
2018-04-24T16:48:32.821Z,13.40
2018-04-24T16:51:00.427Z,13.77
2018-04-24T16:53:28.029Z,13.33
2018-04-24T16:55:55.708Z,12.30
2018-04-24T16:58:23.305Z,9.77
2018-04-24T17:00:51.118Z,9.77
2018-04-24T17:03:19.469Z,11.80
2018-04-24T17:05:47.064Z,9.53
2018-04-24T17:08:14.679Z,11.70
2018-04-24T17:10:43.072Z,11.77
2018-04-24T17:13:11.447Z,10.67
2018-04-24T17:15:39.853Z,8.17
2018-04-24T17:18:07.510Z,13.63
2018-04-24T17:20:35.108Z,12.83
2018-04-24T17:23:02.718Z,10.03
2018-04-24T17:25:30.419Z,14.93
2018-04-24T17:27:58.719Z,11.07
2018-04-24T17:30:26.318Z,14.23
2018-04-24T17:32:53.931Z,13.40
2018-04-24T17:35:21.625Z,12.03
2018-04-24T17:37:49.213Z,13.37
2018-04-24T17:40:16.834Z,10.00
2018-04-24T17:42:45.273Z,11.43
2018-04-24T17:45:13.594Z,16.43
2018-04-24T17:47:41.214Z,14.27
2018-04-24T17:50:08.817Z,12.47
2018-04-24T17:52:36.449Z,15.97
2018-04-24T17:55:04.070Z,14.10
2018-04-24T17:57:31.666Z,16.63
2018-04-24T17:59:59.281Z,11.80
2018-04-24T18:02:26.913Z,11.83
2018-04-24T18:04:54.506Z,14.93
2018-04-24T18:07:22.122Z,16.23
2018-04-24T18:09:49.738Z,20.57
2018-04-24T18:12:17.335Z,23.13
2018-04-24T18:14:44.957Z,18.23
2018-04-24T18:17:12.619Z,18.77
2018-04-24T18:19:40.243Z,18.40
2018-04-24T18:22:08.610Z,17.73
2018-04-24T18:24:36.267Z,21.13
2018-04-24T18:27:03.898Z,16.47
2018-04-24T18:29:31.494Z,15.47
2018-04-24T18:31:59.102Z,16.90
2018-04-24T18:34:26.713Z,16.90
2018-04-24T18:36:54.370Z,19.43
2018-04-24T18:39:22.009Z,16.37
2018-04-24T18:41:49.630Z,22.57
2018-04-24T18:44:17.229Z,15.57
2018-04-24T18:46:44.843Z,27.73
2018-04-24T18:49:13.202Z,19.83
2018-04-24T18:51:41.566Z,20.50
2018-04-24T18:54:09.189Z,23.63
2018-04-24T18:56:36.798Z,19.73
2018-04-24T18:59:05.162Z,26.10
2018-04-24T19:01:33.558Z,24.27
2018-04-24T19:04:01.202Z,25.30
2018-04-24T19:06:28.802Z,24.07
2018-04-24T19:08:56.421Z,20.17
2018-04-24T19:11:24.066Z,21.53
2018-04-24T19:13:51.850Z,22.83
2018-04-24T19:16:19.507Z,27.83
2018-04-24T19:18:52.721Z,27.97
2018-04-24T19:21:20.363Z,24.43
2018-04-24T19:23:48.062Z,31.93
2018-04-24T19:26:15.638Z,20.20
2018-04-24T19:28:43.252Z,22.50
2018-04-24T19:31:16.574Z,23.07
2018-04-24T19:33:44.181Z,24.00
2018-04-24T19:36:11.786Z,29.10
2018-04-24T19:38:39.394Z,22.87
2018-04-24T19:41:12.741Z,25.33
2018-04-24T19:43:40.246Z,17.77
2018-04-24T19:46:07.850Z,24.07
2018-04-24T19:48:41.046Z,28.53
2018-04-24T19:51:08.638Z,29.40
2018-04-24T19:53:36.238Z,23.90
2018-04-24T19:56:03.975Z,23.73
2018-04-24T19:58:31.770Z,28.40
2018-04-24T20:00:59.581Z,22.30
2018-04-24T20:03:28.501Z,23.83
2018-04-24T20:05:56.439Z,30.93
2018-04-24T20:08:24.661Z,25.13
2018-04-24T20:10:52.342Z,25.80
2018-04-24T20:13:20.737Z,24.97
2018-04-24T20:15:49.095Z,27.53
2018-04-24T20:18:17.524Z,26.40
2018-04-24T20:20:45.131Z,29.77
2018-04-24T20:23:12.738Z,36.90
2018-04-24T20:25:40.344Z,17.47
2018-04-24T20:28:07.947Z,32.00
2018-04-24T20:30:35.579Z,31.40
2018-04-24T20:33:03.191Z,32.93
2018-04-24T20:35:30.778Z,30.93
2018-04-24T20:37:58.439Z,25.60
2018-04-24T20:40:26.037Z,25.83
2018-04-24T20:42:53.633Z,28.83
2018-04-24T20:45:21.226Z,23.47
2018-04-24T20:47:48.826Z,23.17
2018-04-24T20:50:16.426Z,27.27
2018-04-24T20:52:44.014Z,23.27
2018-04-24T20:55:11.646Z,24.80
2018-04-24T20:57:39.234Z,27.57
2018-04-24T21:00:06.898Z,25.23
2018-04-24T21:02:34.530Z,23.63
2018-04-24T21:05:02.127Z,28.07
2018-04-24T21:07:29.729Z,27.40
2018-04-24T21:09:57.338Z,19.43
2018-04-24T21:12:24.936Z,20.97
2018-04-24T21:14:52.530Z,23.60
2018-04-24T21:17:20.146Z,21.67
2018-04-24T21:19:47.750Z,22.73
2018-04-24T21:22:15.355Z,30.13
2018-04-24T21:24:43.726Z,19.60
2018-04-24T21:27:12.082Z,19.77
2018-04-24T21:29:39.677Z,17.50
2018-04-24T21:32:07.308Z,17.73
2018-04-24T21:34:34.931Z,23.53
2018-04-24T21:37:02.588Z,26.53
2018-04-24T21:39:30.192Z,21.57
2018-04-24T21:41:57.814Z,20.23
2018-04-24T21:44:26.109Z,18.93
2018-04-24T21:46:53.733Z,19.13
2018-04-24T21:49:21.326Z,17.20
2018-04-24T21:51:48.930Z,28.60
2018-04-24T21:54:17.302Z,20.97
2018-04-24T21:56:45.666Z,27.00
2018-04-24T21:59:13.258Z,23.63
2018-04-24T22:01:40.888Z,20.67
2018-04-24T22:04:08.486Z,19.27
2018-04-24T22:06:36.093Z,16.30
2018-04-24T22:09:03.715Z,20.00
2018-04-24T22:11:31.323Z,24.13
2018-04-24T22:13:58.922Z,16.90
2018-04-24T22:16:26.534Z,22.73
2018-04-24T22:18:54.131Z,21.33
2018-04-24T22:21:21.730Z,17.40
2018-04-24T22:23:49.334Z,16.07
2018-04-24T22:26:16.930Z,16.67
2018-04-24T22:28:44.570Z,18.00
2018-04-24T22:31:12.968Z,21.97
2018-04-24T22:33:40.562Z,24.67
2018-04-24T22:36:08.199Z,23.43
2018-04-24T22:38:35.811Z,25.40
2018-04-24T22:41:03.410Z,18.10
2018-04-24T22:43:30.998Z,21.47
2018-04-24T22:45:58.617Z,22.83
2018-04-24T22:48:26.245Z,26.07
2018-04-24T22:50:53.841Z,17.07
2018-04-24T22:53:21.450Z,21.70
2018-04-24T22:55:49.062Z,18.30
2018-04-24T22:58:16.672Z,19.10
2018-04-24T23:00:44.305Z,25.23
2018-04-24T23:03:11.947Z,23.27
2018-04-24T23:05:39.566Z,15.73
2018-04-24T23:08:07.189Z,17.43
2018-04-24T23:10:46.553Z,18.03
2018-04-24T23:13:26.056Z,19.83
2018-04-24T23:16:05.403Z,16.90
2018-04-24T23:18:45.500Z,23.90
2018-04-24T23:21:13.378Z,24.87
2018-04-24T23:23:40.979Z,25.23
2018-04-24T23:26:08.658Z,22.60
2018-04-24T23:28:36.249Z,26.23
2018-04-24T23:31:03.862Z,27.60
2018-04-24T23:33:31.518Z,29.80
2018-04-24T23:35:59.129Z,24.77
2018-04-24T23:38:26.740Z,30.13
2018-04-24T23:40:54.345Z,30.40
2018-04-24T23:43:21.937Z,39.72
2018-04-24T23:45:49.541Z,32.20
2018-04-24T23:48:17.141Z,33.30
2018-04-24T23:50:45.509Z,27.50
2018-04-24T23:53:13.107Z,35.70
2018-04-24T23:55:40.734Z,29.63
2018-04-24T23:58:08.568Z,33.20
